Time;durP1;ratioP1;P1;durP2;ratioP2;P2;SDS_P1;SDS_P2;PMS_P1;PMS_P2;Temp;Humidity;BMP_temperature;BMP_pressure;BME280_temperature;BME280_humidity;BME280_pressure;Samples;Min_cycle;Max_cycle;Signal;HPM_P1;HPM_P2
2021/12/15 00:00:47;;;;;;;2.30;1.52;;;;;;;-0.64;99.58;100710.06;5047504;28;20044;-75
2021/12/15 00:03:15;;;;;;;4.80;1.73;;;;;;;-0.63;99.54;100713.59;5046883;28;20037;-76
2021/12/15 00:05:42;;;;;;;1.93;1.43;;;;;;;-0.62;99.33;100712.53;5050356;28;20032;-76
2021/12/15 00:08:11;;;;;;;2.42;1.40;;;;;;;-0.63;99.68;100713.59;5027672;28;20458;-75
2021/12/15 00:10:40;;;;;;;2.05;1.50;;;;;;;-0.62;99.62;100720.63;5045358;28;20048;-76
2021/12/15 00:13:06;;;;;;;1.85;1.50;;;;;;;-0.60;99.57;100718.56;5046992;28;20044;-76
2021/12/15 00:15:32;;;;;;;1.45;1.35;;;;;;;-0.59;99.69;100725.59;5031924;28;20085;-76
2021/12/15 00:17:58;;;;;;;1.40;1.30;;;;;;;-0.57;99.55;100720.00;5044530;28;20086;-76
2021/12/15 00:20:25;;;;;;;1.73;1.13;;;;;;;-0.53;99.57;100721.25;5045771;28;20605;-76
2021/12/15 00:22:52;;;;;;;1.58;1.33;;;;;;;-0.54;99.49;100725.81;5036969;28;20037;-76
2021/12/15 00:25:21;;;;;;;2.22;1.52;;;;;;;-0.54;99.60;100720.41;5046067;28;20415;-76
2021/12/15 00:27:47;;;;;;;2.13;1.80;;;;;;;-0.52;99.67;100723.75;5061040;28;20420;-76
2021/12/15 00:30:12;;;;;;;2.28;1.63;;;;;;;-0.51;99.64;100716.50;5045296;28;20499;-76
2021/12/15 00:32:38;;;;;;;3.83;1.73;;;;;;;-0.53;99.54;100722.06;5044202;28;20081;-76
2021/12/15 00:35:06;;;;;;;1.55;1.27;;;;;;;-0.50;99.75;100716.28;5034482;28;20049;-76
2021/12/15 00:37:33;;;;;;;4.15;1.80;;;;;;;-0.53;99.57;100721.25;5036318;28;20029;-76
2021/12/15 00:39:59;;;;;;;1.55;1.33;;;;;;;-0.54;99.57;100722.28;5053634;28;20507;-76
2021/12/15 00:42:24;;;;;;;2.03;1.52;;;;;;;-0.54;99.56;100720.41;5057079;28;20055;-76
2021/12/15 00:44:50;;;;;;;1.70;1.30;;;;;;;-0.52;99.69;100729.16;5046924;28;20029;-76
2021/12/15 00:47:16;;;;;;;1.77;1.45;;;;;;;-0.48;99.61;100735.78;5060837;28;20083;-76
2021/12/15 00:49:42;;;;;;;1.90;1.70;;;;;;;-0.45;99.63;100732.66;5044485;28;20507;-76
2021/12/15 00:52:08;;;;;;;2.65;1.33;;;;;;;-0.47;99.61;100736.59;5023634;28;20042;-76
2021/12/15 00:54:35;;;;;;;2.13;1.45;;;;;;;-0.46;99.50;100740.97;5062912;28;20089;-76
2021/12/15 00:57:03;;;;;;;4.15;1.98;;;;;;;-0.45;99.61;100729.97;5051954;28;20064;-76
2021/12/15 00:59:28;;;;;;;3.10;2.30;;;;;;;-0.43;99.74;100738.69;5054269;28;20086;-76
2021/12/15 01:01:55;;;;;;;2.63;1.83;;;;;;;-0.43;99.73;100740.53;5066072;28;20032;-76
2021/12/15 01:04:22;;;;;;;3.92;2.67;;;;;;;-0.44;99.73;100741.59;5041371;28;20061;-76
2021/12/15 01:06:53;;;;;;;3.33;2.25;;;;;;;-0.43;99.82;100730.59;5061360;28;20056;-76
2021/12/15 01:09:36;;;;;;;3.00;2.05;;;;;;;-0.44;99.66;100728.94;5031211;28;20093;-76
2021/12/15 01:19:54;;;;;;;4.00;3.03;;;;;;;-0.40;99.62;100740.13;5049048;28;20036;-75
2021/12/15 01:22:30;;;;;;;4.03;2.75;;;;;;;-0.41;99.84;100736.59;5034003;28;20041;-75
2021/12/15 01:25:16;;;;;;;3.90;2.65;;;;;;;-0.37;99.88;100737.00;5061121;28;20040;-75
2021/12/15 01:27:43;;;;;;;3.03;2.45;;;;;;;-0.36;99.65;100728.72;5056602;28;20039;-75
2021/12/15 01:30:13;;;;;;;3.70;2.70;;;;;;;-0.35;99.94;100729.53;5042106;28;20079;-75
2021/12/15 01:32:39;;;;;;;3.95;2.42;;;;;;;-0.35;99.65;100727.69;5049633;28;20077;-74
2021/12/15 01:35:05;;;;;;;3.28;2.83;;;;;;;-0.34;100.00;100726.66;5039909;28;20136;-75
2021/12/15 01:37:31;;;;;;;4.70;2.88;;;;;;;-0.33;99.66;100722.94;5052237;28;20037;-75
2021/12/15 01:39:58;;;;;;;3.72;2.58;;;;;;;-0.30;100.00;100729.78;5038105;28;20511;-75
2021/12/15 01:42:27;;;;;;;3.88;2.78;;;;;;;-0.29;100.00;100722.50;5038001;28;20080;-75
2021/12/15 01:47:37;;;;;;;5.15;2.90;;;;;;;-0.27;99.74;100737.44;5055656;28;19987;-75
2021/12/15 01:50:06;;;;;;;5.10;3.05;;;;;;;-0.26;99.99;100733.69;5042311;28;20044;-75
2021/12/15 01:52:35;;;;;;;4.55;2.72;;;;;;;-0.23;99.88;100737.84;5039840;28;20049;-75
2021/12/15 01:55:09;;;;;;;3.50;2.60;;;;;;;-0.23;99.87;100735.16;5037415;28;20038;-75
2021/12/15 01:57:36;;;;;;;3.55;2.00;;;;;;;-0.21;99.78;100733.91;5061675;28;20043;-75
2021/12/15 02:00:15;;;;;;;2.95;2.33;;;;;;;-0.19;100.00;100733.69;5040282;28;20037;-75
2021/12/15 02:02:43;;;;;;;4.32;2.75;;;;;;;-0.21;99.85;100733.91;5039162;28;20037;-76
2021/12/15 02:05:11;;;;;;;4.28;3.05;;;;;;;-0.19;99.84;100733.69;5041287;28;20028;-75
2021/12/15 02:07:37;;;;;;;5.13;2.70;;;;;;;-0.17;99.80;100739.72;5043828;28;20089;-75
2021/12/15 02:10:05;;;;;;;3.42;2.42;;;;;;;-0.14;99.73;100734.75;5041136;28;20611;-76
2021/12/15 02:12:38;;;;;;;2.83;2.00;;;;;;;-0.12;99.84;100740.75;5036054;28;20559;-75
2021/12/15 02:15:14;;;;;;;4.53;3.15;;;;;;;-0.11;99.98;100746.97;5028169;28;20072;-75
2021/12/15 02:17:41;;;;;;;4.30;3.22;;;;;;;-0.12;99.99;100740.75;5056539;28;20529;-75
2021/12/15 02:20:10;;;;;;;4.50;3.05;;;;;;;-0.16;99.83;100741.38;5034009;28;20049;-75
2021/12/15 02:22:36;;;;;;;4.82;2.63;;;;;;;-0.12;99.96;100745.31;5030475;28;20041;-76
2021/12/15 02:25:04;;;;;;;4.93;2.88;;;;;;;-0.12;99.95;100745.31;5037509;28;20043;-76
2021/12/15 02:27:31;;;;;;;4.32;2.75;;;;;;;-0.09;99.95;100744.91;5059468;28;20055;-75
2021/12/15 02:30:04;;;;;;;3.60;2.42;;;;;;;-0.10;99.87;100740.53;5043689;28;20124;-76
2021/12/15 02:32:55;;;;;;;2.42;2.00;;;;;;;-0.10;99.79;100744.06;5037197;28;20500;-76
2021/12/15 02:38:00;;;;;;;4.47;2.60;;;;;;;-0.10;99.98;100749.47;5035256;28;20369;-76
2021/12/15 02:40:26;;;;;;;4.75;2.40;;;;;;;-0.08;100.00;100742.00;5050020;28;20055;-75
2021/12/15 02:42:52;;;;;;;3.47;2.70;;;;;;;-0.09;99.95;100745.72;5034622;28;20040;-76
2021/12/15 02:45:22;;;;;;;2.80;2.30;;;;;;;-0.10;99.92;100745.94;5055696;28;20043;-75
2021/12/15 02:47:48;;;;;;;3.85;2.30;;;;;;;-0.08;99.83;100747.38;5046140;28;20033;-75
2021/12/15 02:50:20;;;;;;;3.90;2.00;;;;;;;-0.04;99.64;100753.19;5044209;28;20131;-76
2021/12/15 02:52:46;;;;;;;3.45;1.90;;;;;;;-0.06;99.86;100744.47;5041619;28;20175;-76
2021/12/15 02:55:13;;;;;;;2.78;2.20;;;;;;;-0.09;100.00;100750.28;5052784;28;20043;-77
2021/12/15 02:57:39;;;;;;;2.75;1.92;;;;;;;-0.08;99.98;100746.56;5044442;28;20099;-76
2021/12/15 03:00:35;;;;;;;3.65;2.22;;;;;;;-0.07;99.95;100748.22;5064025;28;20067;-76
2021/12/15 03:05:49;;;;;;;4.00;2.10;;;;;;;-0.07;99.88;100746.34;5064732;28;20036;-77
2021/12/15 03:08:20;;;;;;;3.97;2.15;;;;;;;-0.08;99.88;100746.56;5065438;28;20052;-77
2021/12/15 03:16:18;;;;;;;2.53;2.13;;;;;;;-0.05;99.87;100740.75;5048966;28;20124;-77
2021/12/15 03:18:44;;;;;;;3.10;2.05;;;;;;;-0.06;99.94;100745.31;5048970;28;20116;-77
2021/12/15 03:21:24;;;;;;;2.90;2.03;;;;;;;-0.04;99.90;100747.78;5043113;28;20033;-76
2021/12/15 03:23:58;;;;;;;2.30;1.95;;;;;;;-0.04;99.87;100750.50;5039312;28;20041;-75
2021/12/15 03:26:30;;;;;;;2.35;2.03;;;;;;;-0.05;100.00;100749.66;5031089;28;20143;-75
2021/12/15 03:39:22;;;;;;;1.67;1.57;;;;;;;-0.02;99.86;100743.84;5053167;28;20036;-74
2021/12/15 03:41:56;;;;;;;2.10;1.90;;;;;;;0.00;99.88;100746.34;5027263;28;20079;-75
2021/12/15 03:44:22;;;;;;;3.58;1.98;;;;;;;0.01;99.81;100753.41;5048377;28;20064;-77
2021/12/15 03:46:47;;;;;;;4.05;2.00;;;;;;;0.01;100.00;100757.97;5022746;28;20037;-76
2021/12/15 03:49:13;;;;;;;1.48;1.30;;;;;;;0.09;99.89;100753.19;5052133;28;20123;-76
2021/12/15 03:51:39;;;;;;;2.95;2.00;;;;;;;0.08;99.94;100756.91;5046615;28;20128;-76
2021/12/15 03:54:05;;;;;;;2.85;1.90;;;;;;;0.05;100.00;100757.34;5046002;28;20056;-76
2021/12/15 03:56:34;;;;;;;2.88;1.88;;;;;;;0.06;100.00;100766.25;5056456;28;20633;-75
2021/12/15 03:59:00;;;;;;;;;;;;;;;0.03;100.00;100770.22;5053078;28;20038;-75
2021/12/15 04:01:26;;;;;;;4.65;2.75;;;;;;;0.03;100.00;100775.59;5045102;28;19921;-76
2021/12/15 04:03:54;;;;;;;1.50;1.40;;;;;;;0.04;99.89;100779.13;5039025;28;20124;-76
2021/12/15 04:06:29;;;;;;;1.48;1.38;;;;;;;0.01;99.91;100777.69;5056542;28;20094;-77
2021/12/15 04:08:55;;;;;;;1.92;1.60;;;;;;;0.05;99.98;100778.91;5052372;28;20043;-76
2021/12/15 04:11:24;;;;;;;2.47;1.48;;;;;;;0.07;99.91;100776.00;5043563;28;20556;-76
2021/12/15 04:13:51;;;;;;;1.98;1.70;;;;;;;0.08;100.00;100789.28;5064177;28;20055;-76
2021/12/15 04:18:57;;;;;;;;;;;;;;;0.08;99.95;100780.38;5042536;28;20050;-77
2021/12/15 04:21:23;;;;;;;2.72;1.80;;;;;;;0.06;100.00;100785.97;5043288;28;19935;-77
2021/12/15 04:23:54;;;;;;;3.35;1.77;;;;;;;0.06;100.00;100775.19;5050327;28;20037;-75
2021/12/15 04:26:20;;;;;;;2.28;1.65;;;;;;;0.05;99.96;100781.63;5041878;28;20064;-77
2021/12/15 04:28:47;;;;;;;2.28;1.50;;;;;;;0.07;100.00;100786.81;5041863;28;20496;-76
2021/12/15 04:31:16;;;;;;;1.92;1.73;;;;;;;0.05;100.00;100784.31;5040836;28;20032;-76
2021/12/15 04:33:54;;;;;;;2.03;1.83;;;;;;;0.04;100.00;100796.16;5049289;28;20037;-77
2021/12/15 04:36:25;;;;;;;1.70;1.60;;;;;;;0.02;99.96;100805.50;5049144;28;20079;-77
2021/12/15 04:38:51;;;;;;;1.95;1.83;;;;;;;-0.01;100.00;100798.63;5043624;28;20419;-78
2021/12/15 04:41:19;;;;;;;1.85;1.70;;;;;;;-0.01;99.84;100796.75;5026518;28;20415;-78
2021/12/15 04:43:56;;;;;;;2.58;1.73;;;;;;;0.00;99.99;100803.00;5040259;28;20025;-77
2021/12/15 04:46:23;;;;;;;1.85;1.70;;;;;;;0.01;99.97;100801.97;5019526;28;20041;-78
2021/12/15 04:48:49;;;;;;;2.28;1.60;;;;;;;0.01;100.00;100798.44;5046399;28;20036;-78
2021/12/15 04:51:14;;;;;;;2.38;1.50;;;;;;;-0.01;100.00;100793.22;5040782;28;20036;-77
2021/12/15 04:53:41;;;;;;;1.88;1.70;;;;;;;-0.04;100.00;100794.47;5047293;28;20052;-78
2021/12/15 04:56:07;;;;;;;1.85;1.67;;;;;;;-0.04;99.95;100801.72;5041441;28;20045;-77
2021/12/15 04:58:34;;;;;;;2.03;1.80;;;;;;;-0.06;100.00;100798.41;5039093;28;20455;-78
2021/12/15 05:01:03;;;;;;;1.70;1.60;;;;;;;-0.06;99.91;100798.41;5041021;28;20046;-78
2021/12/15 05:03:29;;;;;;;1.60;1.30;;;;;;;-0.08;100.00;100801.31;5065875;28;20044;-78
2021/12/15 05:05:55;;;;;;;2.25;1.27;;;;;;;-0.07;99.84;100804.84;5061180;28;20046;-78
2021/12/15 05:08:21;;;;;;;1.33;1.23;;;;;;;-0.09;99.90;100810.47;5049172;28;20504;-78
2021/12/15 05:10:47;;;;;;;1.35;1.23;;;;;;;-0.09;100.00;100809.63;5064906;28;20056;-77
2021/12/15 05:13:13;;;;;;;1.35;1.20;;;;;;;-0.10;100.00;100818.75;5040094;28;20526;-78
2021/12/15 05:15:39;;;;;;;1.50;1.25;;;;;;;-0.10;100.00;100814.19;5048233;28;20037;-77
2021/12/15 05:18:07;;;;;;;1.88;1.38;;;;;;;-0.13;100.00;100813.78;5063537;28;20036;-78
2021/12/15 05:20:34;;;;;;;1.33;1.20;;;;;;;-0.13;100.00;100811.91;5071718;28;20032;-78
2021/12/15 05:23:02;;;;;;;1.20;0.85;;;;;;;-0.17;100.00;100810.69;5054846;28;20036;-78
2021/12/15 05:25:29;;;;;;;1.42;0.98;;;;;;;-0.16;100.00;100814.22;5065776;28;20052;-78
2021/12/15 05:27:57;;;;;;;1.40;1.30;;;;;;;-0.16;99.95;100819.59;5061667;28;20032;-78
2021/12/15 05:30:23;;;;;;;0.80;0.80;;;;;;;-0.18;100.00;100810.84;5058226;28;20135;-77
2021/12/15 05:32:54;;;;;;;1.15;0.90;;;;;;;-0.21;99.95;100822.88;5067583;28;20052;-77
2021/12/15 05:35:23;;;;;;;1.00;0.88;;;;;;;-0.22;100.00;100823.94;5051999;28;20067;-77
2021/12/15 05:37:56;;;;;;;0.90;0.90;;;;;;;-0.22;100.00;100815.00;5059744;28;20036;-77
2021/12/15 05:40:23;;;;;;;1.00;1.00;;;;;;;-0.22;99.99;100832.00;5054504;28;20045;-77
2021/12/15 05:42:50;;;;;;;2.05;0.98;;;;;;;-0.21;100.00;100824.75;5063875;28;20055;-77
2021/12/15 05:45:16;;;;;;;0.80;0.80;;;;;;;-0.23;100.00;100821.44;5054416;28;20499;-77
2021/12/15 05:47:42;;;;;;;1.05;1.00;;;;;;;-0.23;100.00;100813.34;5013576;28;20068;-78
2021/12/15 05:50:12;;;;;;;0.90;0.90;;;;;;;-0.23;100.00;100813.34;5063338;28;20037;-78
2021/12/15 05:52:38;;;;;;;1.25;1.15;;;;;;;-0.23;100.00;100818.75;5038811;28;20045;-77
2021/12/15 05:55:08;;;;;;;1.10;1.00;;;;;;;-0.23;100.00;100816.03;5069026;28;20136;-77
2021/12/15 05:57:34;;;;;;;2.08;1.15;;;;;;;-0.22;100.00;100815.00;5049238;28;20033;-77
2021/12/15 06:00:04;;;;;;;1.27;1.10;;;;;;;-0.23;100.00;100818.75;5058248;28;20052;-77
2021/12/15 06:02:37;;;;;;;1.02;0.90;;;;;;;-0.27;100.00;100822.91;5065295;28;20040;-77
2021/12/15 06:05:04;;;;;;;1.25;1.10;;;;;;;-0.25;100.00;100823.50;5055214;28;20037;-77
2021/12/15 06:07:29;;;;;;;2.13;1.85;;;;;;;-0.24;100.00;100830.56;5066189;28;20045;-77
2021/12/15 06:09:55;;;;;;;1.33;1.20;;;;;;;-0.23;100.00;100832.22;5061098;28;20044;-77
2021/12/15 06:12:21;;;;;;;1.98;1.10;;;;;;;-0.23;100.00;100813.34;5052078;28;20037;-77
2021/12/15 06:14:47;;;;;;;1.75;1.30;;;;;;;-0.23;100.00;100827.66;5064411;28;20070;-77
2021/12/15 06:17:13;;;;;;;1.45;1.20;;;;;;;-0.21;99.81;100832.84;5054724;28;20032;-77
2021/12/15 06:19:38;;;;;;;1.52;1.40;;;;;;;-0.24;99.97;100822.47;5062908;28;20029;-76
2021/12/15 06:22:05;;;;;;;2.25;1.35;;;;;;;-0.23;100.00;100821.44;5062018;28;20060;-76
2021/12/15 06:24:38;;;;;;;2.75;1.40;;;;;;;-0.22;100.00;100825.78;5057420;28;20060;-77
2021/12/15 06:27:10;;;;;;;1.45;1.30;;;;;;;-0.20;100.00;100823.72;5067859;28;20082;-78
2021/12/15 06:29:36;;;;;;;2.15;1.23;;;;;;;-0.21;100.00;100827.44;5057032;28;20028;-78
2021/12/15 06:32:04;;;;;;;1.63;1.20;;;;;;;-0.19;100.00;100830.78;5061061;28;20522;-78
2021/12/15 06:34:29;;;;;;;2.08;1.58;;;;;;;-0.19;100.00;100826.22;5064415;28;20412;-77
2021/12/15 06:36:57;;;;;;;1.60;1.40;;;;;;;-0.17;99.77;100829.56;5055120;28;20047;-77
2021/12/15 06:39:23;;;;;;;3.38;1.70;;;;;;;-0.18;100.00;100827.88;5065324;28;20033;-77
2021/12/15 06:41:48;;;;;;;1.60;1.40;;;;;;;-0.18;100.00;100827.88;5059789;28;20036;-78
2021/12/15 06:44:15;;;;;;;2.92;1.38;;;;;;;-0.15;100.00;100834.75;5057945;28;20094;-78
2021/12/15 07:00:17;;;;;;;3.38;1.30;;;;;;;-0.15;100.00;100830.19;5051003;28;20419;-78
2021/12/15 07:02:43;;;;;;;1.55;1.27;;;;;;;-0.13;99.97;100835.38;5061663;28;20048;-77
2021/12/15 07:05:11;;;;;;;1.70;1.25;;;;;;;-0.12;99.74;100839.72;5054020;28;20040;-77
2021/12/15 07:07:38;;;;;;;2.00;1.48;;;;;;;-0.15;99.96;100832.88;5046073;28;20028;-77
2021/12/15 07:10:06;;;;;;;2.97;1.50;;;;;;;-0.14;99.90;100839.09;5061265;28;20052;-77
2021/12/15 07:12:32;;;;;;;1.73;1.38;;;;;;;-0.15;99.87;100835.56;5056358;28;20048;-77
2021/12/15 07:14:57;;;;;;;2.10;1.20;;;;;;;-0.17;100.00;100829.56;5049293;28;20041;-77
2021/12/15 07:17:25;;;;;;;2.50;1.40;;;;;;;-0.17;100.00;100837.66;5054385;28;20052;-77
2021/12/15 07:22:33;;;;;;;3.17;1.48;;;;;;;-0.18;99.97;100849.44;5063200;28;20058;-77
2021/12/15 07:25:01;;;;;;;1.65;1.20;;;;;;;-0.17;100.00;100848.44;5052663;28;20033;-77
2021/12/15 07:27:27;;;;;;;2.50;1.50;;;;;;;-0.14;100.00;100849.88;5035732;28;20464;-78
2021/12/15 07:29:52;;;;;;;3.63;1.50;;;;;;;-0.15;100.00;100840.13;5048227;28;20068;-78
2021/12/15 07:32:18;;;;;;;4.32;1.50;;;;;;;-0.15;100.00;100848.22;5057860;28;20127;-77
2021/12/15 07:34:44;;;;;;;2.75;1.40;;;;;;;-0.15;100.00;100845.53;5048838;28;20135;-78
2021/12/15 07:37:10;;;;;;;3.30;1.80;;;;;;;-0.16;100.00;100838.47;5053733;28;20503;-78
2021/12/15 07:39:37;;;;;;;1.85;1.35;;;;;;;-0.17;100.00;100840.34;5062850;28;20116;-78
2021/12/15 07:42:10;;;;;;;2.78;1.85;;;;;;;-0.22;100.00;100837.41;5059700;28;20037;-78
2021/12/15 07:44:37;;;;;;;2.03;1.50;;;;;;;-0.22;100.00;100844.66;5055393;28;20153;-77
2021/12/15 07:47:04;;;;;;;1.50;1.10;;;;;;;-0.21;100.00;100855.25;5066924;28;20036;-77
2021/12/15 07:49:31;;;;;;;2.85;1.58;;;;;;;-0.20;100.00;100845.28;5055348;28;20043;-76
2021/12/15 07:52:02;;;;;;;3.05;1.20;;;;;;;-0.20;100.00;100848.00;5023102;28;20030;-77
2021/12/15 07:54:30;;;;;;;1.95;1.27;;;;;;;-0.21;100.00;100855.25;5058216;28;20072;-78
2021/12/15 07:56:56;;;;;;;2.73;1.70;;;;;;;-0.23;100.00;100851.09;5037614;28;20042;-77
2021/12/15 07:59:22;;;;;;;2.30;1.75;;;;;;;-0.23;100.00;100845.72;5063943;28;20495;-77
2021/12/15 08:01:48;;;;;;;2.00;1.27;;;;;;;-0.24;100.00;100850.28;5039469;28;20040;-77
2021/12/15 08:04:14;;;;;;;2.67;1.42;;;;;;;-0.25;100.00;100853.19;5048320;28;20451;-78
2021/12/15 08:06:40;;;;;;;2.63;1.63;;;;;;;-0.25;100.00;100847.78;5052829;28;20504;-77
2021/12/15 08:09:06;;;;;;;1.75;1.38;;;;;;;-0.25;100.00;100850.47;5064060;28;20045;-77
2021/12/15 08:11:31;;;;;;;1.95;1.48;;;;;;;-0.26;100.00;100846.13;5036435;28;20499;-77
2021/12/15 08:13:57;;;;;;;2.72;1.30;;;;;;;-0.26;100.00;100856.91;5056434;28;20071;-77
2021/12/15 08:16:27;;;;;;;2.13;1.30;;;;;;;-0.25;100.00;100855.88;5069900;28;20535;-77
2021/12/15 08:18:52;;;;;;;2.58;2.38;;;;;;;-0.24;100.00;100858.38;5053321;28;20043;-77
2021/12/15 08:21:18;;;;;;;2.42;1.60;;;;;;;-0.23;100.00;100854.63;5065766;28;20029;-78
2021/12/15 08:23:44;;;;;;;3.17;1.52;;;;;;;-0.21;100.00;100867.91;5048509;28;20116;-77
2021/12/15 08:26:10;;;;;;;1.77;1.42;;;;;;;-0.22;100.00;100853.59;5061485;28;20525;-77
2021/12/15 08:28:36;;;;;;;2.60;1.98;;;;;;;-0.21;100.00;100859.81;5053539;28;20037;-77
2021/12/15 08:31:03;;;;;;;2.03;1.80;;;;;;;-0.21;100.00;100862.50;5067510;28;20044;-77
2021/12/15 08:33:28;;;;;;;2.58;2.10;;;;;;;-0.20;100.00;100858.78;5046224;28;20047;-77
2021/12/15 08:35:58;;;;;;;3.20;2.20;;;;;;;-0.18;100.00;100870.19;5057716;28;20131;-77
2021/12/15 08:38:29;;;;;;;3.17;2.30;;;;;;;-0.17;100.00;100858.41;5071206;28;20034;-77
2021/12/15 08:40:55;;;;;;;3.00;2.28;;;;;;;-0.14;100.00;100858.81;5072292;28;20491;-77
2021/12/15 08:43:22;;;;;;;2.58;2.03;;;;;;;-0.13;100.00;100846.16;5048167;28;20051;-77
2021/12/15 08:45:56;;;;;;;2.58;1.90;;;;;;;-0.13;100.00;100843.44;5061660;28;20051;-77
2021/12/15 08:48:23;;;;;;;2.13;1.70;;;;;;;-0.11;100.00;100844.06;5042009;28;20047;-77
2021/12/15 08:50:49;;;;;;;2.00;1.60;;;;;;;-0.09;100.00;100847.41;5066365;28;20068;-77
2021/12/15 08:53:15;;;;;;;6.40;1.80;;;;;;;-0.06;100.00;100852.38;5061593;28;20033;-78
2021/12/15 08:55:43;;;;;;;2.40;1.52;;;;;;;-0.02;100.00;100845.50;5048072;28;20090;-77
2021/12/15 08:58:11;;;;;;;1.52;1.40;;;;;;;0.00;100.00;100846.16;5063402;28;20414;-77
2021/12/15 09:00:43;;;;;;;2.88;1.95;;;;;;;0.01;100.00;100844.31;5057270;28;20041;-77
2021/12/15 09:03:10;;;;;;;2.60;1.73;;;;;;;0.03;100.00;100839.53;5069539;28;20258;-77
2021/12/15 09:05:36;;;;;;;2.75;1.90;;;;;;;0.02;100.00;100827.91;5045686;28;20033;-77
2021/12/15 09:08:04;;;;;;;3.25;2.13;;;;;;;0.06;100.00;100839.09;5046611;28;20049;-77
2021/12/15 09:10:32;;;;;;;1.75;1.45;;;;;;;0.04;100.00;100825.81;5061215;28;20110;-76
2021/12/15 09:12:58;;;;;;;2.45;1.90;;;;;;;0.05;100.00;100824.78;5055148;28;20438;-78
2021/12/15 09:15:24;;;;;;;1.77;1.67;;;;;;;0.07;100.00;100828.09;5041787;28;20125;-78
2021/12/15 09:17:51;;;;;;;2.70;1.70;;;;;;;0.06;100.00;100818.34;5060415;28;20036;-78
2021/12/15 09:20:19;;;;;;;4.15;2.00;;;;;;;0.09;100.00;100823.31;5059386;28;20517;-78
2021/12/15 09:22:46;;;;;;;2.72;1.75;;;;;;;0.11;100.00;100832.03;5051480;28;20046;-78
2021/12/15 09:25:12;;;;;;;2.65;1.98;;;;;;;0.14;100.00;100820.81;5044445;28;20060;-78
2021/12/15 09:27:39;;;;;;;4.32;1.73;;;;;;;0.14;100.00;100826.22;5064309;28;20037;-78
2021/12/15 09:30:08;;;;;;;3.05;1.65;;;;;;;0.16;100.00;100823.31;5061816;28;20494;-78
2021/12/15 09:32:33;;;;;;;2.75;1.90;;;;;;;0.17;100.00;100833.06;5056505;28;20445;-79
2021/12/15 09:34:59;;;;;;;4.25;1.70;;;;;;;0.17;100.00;100831.19;5034265;28;20037;-78
2021/12/15 09:37:25;;;;;;;2.72;1.77;;;;;;;0.17;100.00;100825.78;5065973;28;20032;-78
2021/12/15 09:39:51;;;;;;;2.70;1.27;;;;;;;0.19;100.00;100834.53;5059098;28;20036;-77
2021/12/15 09:42:21;;;;;;;0.88;0.73;;;;;;;0.19;100.00;100834.53;5060130;28;20667;-85
2021/12/15 09:44:50;;;;;;;3.35;1.13;;;;;;;0.19;100.00;100837.25;5068152;28;20044;-87
2021/12/15 09:47:37;;;;;;;1.30;0.98;;;;;;;0.18;100.00;100832.06;5055540;28;20078;-86
2021/12/15 10:12:20;;;;;;;1.77;1.25;;;;;;;0.10;100.00;100810.66;5062824;28;20086;-83
2021/12/15 10:19:57;;;;;;;1.58;1.30;;;;;;;0.09;100.00;100795.50;5061610;28;20193;-83
2021/12/15 10:22:43;;;;;;;2.63;1.83;;;;;;;0.09;99.77;100806.31;5063974;28;20043;-83
2021/12/15 10:25:27;;;;;;;2.20;1.95;;;;;;;0.08;99.84;100800.09;5053951;28;20075;-88
2021/12/15 10:28:06;;;;;;;1.63;1.52;;;;;;;0.07;99.82;100793.03;5066744;28;20127;-87
2021/12/15 10:30:32;;;;;;;1.77;1.25;;;;;;;0.08;99.74;100799.25;5051065;28;20495;-88
2021/12/15 10:33:02;;;;;;;3.33;2.00;;;;;;;0.06;99.60;100796.78;5018239;28;20103;-81
2021/12/15 10:35:33;;;;;;;3.72;2.22;;;;;;;0.05;99.54;100800.50;5039976;28;20040;-83
2021/12/15 10:38:17;;;;;;;3.75;2.00;;;;;;;0.08;99.69;100804.66;5034029;28;20411;-88
2021/12/15 10:40:51;;;;;;;2.92;1.77;;;;;;;0.04;99.45;100796.16;5033847;28;20036;-84
2021/12/15 10:43:18;;;;;;;3.15;2.40;;;;;;;0.05;99.45;100800.50;5050177;28;20032;-85
2021/12/15 10:45:49;;;;;;;2.65;1.73;;;;;;;0.06;99.58;100798.63;5053202;28;20056;-89
2021/12/15 10:48:25;;;;;;;3.90;1.60;;;;;;;0.04;99.53;100798.84;5071056;28;20130;-90
2021/12/15 10:50:53;;;;;;;3.88;2.42;;;;;;;0.03;99.47;100797.19;5038623;28;20041;-88
2021/12/15 10:53:35;;;;;;;3.63;2.25;;;;;;;0.03;99.49;100794.50;5030709;28;20517;-88
2021/12/15 10:56:10;;;;;;;4.68;1.80;;;;;;;0.03;99.35;100791.78;5001992;28;20127;-87
2021/12/15 10:58:42;;;;;;;3.22;1.83;;;;;;;0.03;99.29;100791.78;5051947;28;20044;-89
2021/12/15 11:01:38;;;;;;;3.55;2.03;;;;;;;0.01;99.46;100783.09;5037385;28;20028;-88
2021/12/15 11:04:31;;;;;;;1.48;1.30;;;;;;;-0.01;99.39;100780.56;5049426;28;20114;-85
2021/12/15 11:07:00;;;;;;;2.88;1.83;;;;;;;0.00;99.22;100767.94;5065342;28;20041;-85
2021/12/15 11:09:26;;;;;;;3.40;2.30;;;;;;;-0.01;99.31;100777.03;5035339;28;20064;-78
2021/12/15 11:12:14;;;;;;;3.72;2.75;;;;;;;0.00;99.27;100776.03;5059496;28;20037;-79
2021/12/15 11:14:42;;;;;;;2.67;2.20;;;;;;;0.01;99.11;100766.91;5055244;28;20449;-82
2021/12/15 11:17:23;;;;;;;3.58;2.20;;;;;;;0.02;99.12;100763.16;5025058;28;20060;-82
2021/12/15 11:19:54;;;;;;;3.80;2.20;;;;;;;0.02;99.00;100760.47;5059700;28;20036;-82
2021/12/15 11:22:40;;;;;;;2.38;2.03;;;;;;;0.02;98.88;100755.06;5054659;28;20534;-82
2021/12/15 11:25:46;;;;;;;4.05;2.22;;;;;;;0.03;98.67;100753.19;5032910;28;20415;-82
2021/12/15 11:28:16;;;;;;;2.13;1.58;;;;;;;0.04;98.67;100757.56;5047062;28;20045;-83
2021/12/15 11:30:42;;;;;;;2.85;1.52;;;;;;;0.04;98.49;100750.28;5038187;28;20120;-86
2021/12/15 11:33:15;;;;;;;2.00;1.80;;;;;;;0.07;98.49;100744.47;5041660;28;20182;-78
2021/12/15 11:35:56;;;;;;;3.75;2.25;;;;;;;0.07;98.54;100740.94;5038928;28;20364;-75
2021/12/15 11:38:36;;;;;;;4.30;2.30;;;;;;;0.08;98.61;100743.44;5036964;28;20565;-75
2021/12/15 11:41:13;;;;;;;3.47;2.22;;;;;;;0.10;98.49;100741.34;5057097;28;20050;-78
2021/12/15 11:43:39;;;;;;;4.05;2.47;;;;;;;0.10;98.27;100732.41;5048305;28;20041;-78
2021/12/15 11:46:23;;;;;;;4.30;2.40;;;;;;;0.08;98.51;100746.13;5051205;28;20462;-77
2021/12/15 11:49:23;;;;;;;4.75;2.60;;;;;;;0.06;98.37;100737.41;5052283;28;20037;-77
2021/12/15 11:51:51;;;;;;;6.53;3.50;;;;;;;0.03;98.39;100721.66;5046269;28;20048;-83
2021/12/15 11:54:19;;;;;;;7.22;3.72;;;;;;;0.01;98.52;100729.13;5052342;28;20131;-81
2021/12/15 11:57:07;;;;;;;10.50;4.07;;;;;;;0.01;98.39;100717.50;5057593;28;20507;-77
2021/12/15 11:59:42;;;;;;;6.78;3.50;;;;;;;0.01;98.39;100718.34;5031524;28;20053;-76
2021/12/15 12:02:23;;;;;;;10.50;4.97;;;;;;;-0.01;98.54;100712.28;5030906;28;20053;-75
2021/12/15 12:05:01;;;;;;;7.47;4.07;;;;;;;0.00;98.59;100711.28;5041116;28;20037;-75
2021/12/15 12:07:33;;;;;;;9.23;4.72;;;;;;;-0.03;98.35;100722.47;5035070;28;20041;-74
2021/12/15 12:10:02;;;;;;;14.50;4.82;;;;;;;-0.05;98.54;100721.84;5033392;28;20398;-74
2021/12/15 12:12:40;;;;;;;11.27;5.32;;;;;;;-0.06;98.45;100709.41;5045503;28;20040;-74
2021/12/15 12:15:09;;;;;;;13.98;5.28;;;;;;;-0.08;98.64;100714.19;5040695;28;20041;-75
2021/12/15 12:17:37;;;;;;;10.27;5.13;;;;;;;-0.09;98.48;100701.75;5044982;28;20037;-77
2021/12/15 12:20:24;;;;;;;12.18;5.20;;;;;;;-0.09;98.50;100704.44;5037501;28;20049;-77
2021/12/15 12:22:52;;;;;;;8.85;3.92;;;;;;;-0.10;98.54;100705.47;5041902;28;20501;-77
2021/12/15 12:25:39;;;;;;;9.25;5.05;;;;;;;-0.08;98.74;100700.69;5042326;28;20066;-77
2021/12/15 12:28:08;;;;;;;14.25;5.47;;;;;;;-0.06;98.56;100693.22;5017650;28;20166;-77
2021/12/15 12:30:40;;;;;;;8.35;4.70;;;;;;;-0.05;98.61;100693.00;5040216;28;20038;-77
2021/12/15 12:33:10;;;;;;;11.25;4.63;;;;;;;-0.02;98.57;100684.50;5040683;28;20044;-78
2021/12/15 12:35:40;;;;;;;9.57;4.22;;;;;;;-0.04;98.59;100683.06;5041937;28;20033;-77
2021/12/15 12:38:19;;;;;;;12.63;5.57;;;;;;;-0.05;98.75;100692.19;5050002;28;20097;-78
2021/12/15 12:40:54;;;;;;;9.02;4.35;;;;;;;-0.04;98.57;100694.66;5048150;28;20037;-77
2021/12/15 12:43:26;;;;;;;8.73;4.20;;;;;;;-0.04;98.79;100685.75;5042172;28;20037;-78
2021/12/15 12:46:19;;;;;;;11.75;4.80;;;;;;;-0.05;98.68;100684.91;5028730;28;20037;-78
2021/12/15 12:49:20;;;;;;;9.25;4.97;;;;;;;-0.07;98.92;100686.19;5046825;28;20033;-78
2021/12/15 13:00:38;;;;;;;10.95;4.18;;;;;;;-0.12;98.84;100677.91;5044969;28;20064;-76
2021/12/15 13:03:10;;;;;;;11.48;5.25;;;;;;;-0.10;98.92;100681.22;5045911;28;20049;-76